createdAt,value
2023-05-19T00:02:34.354Z,98130.50
2023-05-19T00:05:05.264Z,98131.41
2023-05-19T00:07:35.997Z,98129.84
2023-05-19T00:10:08.164Z,98125.25
2023-05-19T00:12:39.978Z,98123.66
2023-05-19T00:15:12.691Z,98125.47
2023-05-19T00:17:42.829Z,98118.47
2023-05-19T00:20:15.553Z,98113.16
2023-05-19T00:22:45.800Z,98113.69
2023-05-19T00:25:15.977Z,98113.28
2023-05-19T00:27:46.956Z,98114.25
2023-05-19T00:30:17.284Z,98120.34
2023-05-19T00:32:47.042Z,98116.38
2023-05-19T00:35:17.465Z,98116.19
2023-05-19T00:37:47.711Z,98109.09
2023-05-19T00:40:18.423Z,98105.06
2023-05-19T00:42:49.671Z,98103.22
2023-05-19T00:45:19.538Z,98108.06
2023-05-19T00:47:50.035Z,98112.81
2023-05-19T00:50:19.800Z,98105.41
2023-05-19T00:52:49.568Z,98111.09
2023-05-19T00:55:19.902Z,98110.31
2023-05-19T00:57:52.183Z,98103.66
2023-05-19T01:00:22.284Z,98111.97
2023-05-19T01:02:52.738Z,98107.31
2023-05-19T01:05:23.311Z,98104.84
2023-05-19T01:07:55.890Z,98106.41
2023-05-19T01:10:25.520Z,98098.00
2023-05-19T01:12:57.279Z,98111.25
2023-05-19T01:15:28.930Z,98100.94
2023-05-19T01:18:07.526Z,98104.03
2023-05-19T01:20:41.220Z,98107.16
2023-05-19T01:23:31.546Z,98103.72
2023-05-19T01:26:31.421Z,98107.94
2023-05-19T01:29:29.110Z,98103.72
2023-05-19T01:32:02.715Z,98108.78
2023-05-19T01:34:34.299Z,98107.47
2023-05-19T01:37:05.920Z,98099.41
2023-05-19T01:39:36.025Z,98106.41
2023-05-19T01:42:06.770Z,98095.63
2023-05-19T01:44:36.696Z,98096.41
2023-05-19T01:47:08.115Z,98091.97
2023-05-19T01:49:38.400Z,98098.94
2023-05-19T01:52:08.308Z,98098.22
2023-05-19T01:54:39.325Z,98087.50
2023-05-19T01:57:16.794Z,98092.97
2023-05-19T01:59:58.923Z,98102.59
2023-05-19T02:02:36.337Z,98096.22
2023-05-19T02:05:14.764Z,98100.31
2023-05-19T02:07:49.797Z,98100.25
2023-05-19T02:10:25.730Z,98095.03
2023-05-19T02:12:56.476Z,98093.25
2023-05-19T02:15:28.069Z,98092.19
2023-05-19T02:18:01.102Z,98090.75
2023-05-19T02:20:31.290Z,98088.94
2023-05-19T02:23:01.507Z,98093.25
2023-05-19T02:25:31.276Z,98088.16
2023-05-19T02:28:01.103Z,98081.66
2023-05-19T02:30:32.526Z,98085.31
2023-05-19T02:33:06.726Z,98089.38
2023-05-19T02:35:36.947Z,98077.97
2023-05-19T02:38:06.908Z,98080.94
2023-05-19T02:40:36.881Z,98085.56
2023-05-19T02:43:06.841Z,98080.94
2023-05-19T02:45:37.136Z,98085.69
2023-05-19T02:48:08.967Z,98082.94
2023-05-19T02:50:38.438Z,98079.63
2023-05-19T02:53:08.658Z,98079.97
2023-05-19T02:55:38.975Z,98078.47
2023-05-19T02:58:09.030Z,98076.34
2023-05-19T03:00:38.932Z,98072.72
2023-05-19T03:03:11.302Z,98071.50
2023-05-19T03:05:40.566Z,98077.16
2023-05-19T03:08:11.458Z,98082.59
2023-05-19T03:10:41.451Z,98076.41
2023-05-19T03:13:11.866Z,98076.13
2023-05-19T03:15:42.779Z,98069.19
2023-05-19T03:18:15.141Z,98068.75
2023-05-19T03:20:45.988Z,98070.88
2023-05-19T03:23:15.881Z,98082.00
2023-05-19T03:25:46.269Z,98071.94
2023-05-19T03:28:16.019Z,98071.50
2023-05-19T03:30:46.754Z,98069.91
2023-05-19T03:33:19.666Z,98065.34
2023-05-19T03:35:50.410Z,98062.16
2023-05-19T03:38:20.331Z,98070.88
2023-05-19T03:40:51.251Z,98067.31
2023-05-19T03:43:20.965Z,98075.75
2023-05-19T03:45:51.159Z,98086.66
2023-05-19T03:48:22.098Z,98084.75
2023-05-19T03:50:51.801Z,98086.84
2023-05-19T03:53:22.152Z,98080.00
2023-05-19T03:55:52.153Z,98082.63
2023-05-19T03:58:21.935Z,98080.88
2023-05-19T04:00:51.947Z,98084.66
2023-05-19T04:03:24.437Z,98086.38
2023-05-19T04:05:55.880Z,98091.13
2023-05-19T04:08:25.544Z,98089.28
2023-05-19T04:10:56.129Z,98096.69
2023-05-19T04:13:26.275Z,98095.13
2023-05-19T04:15:56.467Z,98092.56
2023-05-19T04:18:29.209Z,98086.38
2023-05-19T04:20:59.811Z,98101.66
2023-05-19T04:23:30.034Z,98100.91
2023-05-19T04:26:02.518Z,98113.63
2023-05-19T04:28:32.386Z,98117.78
2023-05-19T04:31:03.787Z,98117.25
2023-05-19T04:33:35.111Z,98118.91
2023-05-19T04:36:08.753Z,98123.03
2023-05-19T04:38:41.053Z,98129.72
2023-05-19T04:41:11.130Z,98127.13
2023-05-19T04:43:42.128Z,98131.88
2023-05-19T04:46:13.833Z,98131.66
2023-05-19T04:48:45.816Z,98134.28
2023-05-19T04:51:18.122Z,98140.34
2023-05-19T04:53:47.867Z,98140.69
2023-05-19T04:56:18.194Z,98140.28
2023-05-19T04:58:48.388Z,98134.88
2023-05-19T05:01:21.915Z,98142.88
2023-05-19T05:03:55.701Z,98147.06
2023-05-19T05:06:25.868Z,98145.50
2023-05-19T05:08:57.285Z,98151.72
2023-05-19T05:11:29.290Z,98147.97
2023-05-19T05:14:00.417Z,98153.88
2023-05-19T05:16:32.593Z,98148.38
2023-05-19T05:19:06.358Z,98148.16
2023-05-19T05:21:37.341Z,98148.28
2023-05-19T05:24:08.721Z,98156.44
2023-05-19T05:26:39.954Z,98160.00
2023-05-19T05:29:10.776Z,98164.59
2023-05-19T05:31:41.598Z,98165.47
2023-05-19T05:34:13.140Z,98161.34
2023-05-19T05:36:42.965Z,98160.28
2023-05-19T05:39:13.634Z,98167.44
2023-05-19T05:41:44.009Z,98166.78
2023-05-19T05:44:13.982Z,98170.44
2023-05-19T05:46:44.745Z,98165.44
2023-05-19T05:49:17.455Z,98175.75
2023-05-19T05:52:05.014Z,98166.03
2023-05-19T05:54:36.825Z,98174.16
2023-05-19T05:57:08.109Z,98173.41
2023-05-19T05:59:39.072Z,98170.69
2023-05-19T06:02:09.978Z,98175.38
2023-05-19T06:04:42.965Z,98178.16
2023-05-19T06:07:13.230Z,98170.06
2023-05-19T06:09:43.292Z,98177.53
2023-05-19T06:12:13.179Z,98182.13
2023-05-19T06:14:43.264Z,98186.06
2023-05-19T06:17:13.475Z,98186.75
2023-05-19T06:19:44.633Z,98179.00
2023-05-19T06:22:14.517Z,98186.56
2023-05-19T06:24:44.697Z,98186.78
2023-05-19T06:27:14.600Z,98184.03
2023-05-19T06:29:44.150Z,98184.66
2023-05-19T06:32:14.010Z,98197.94
2023-05-19T06:34:46.138Z,98191.56
2023-05-19T06:37:19.825Z,98193.72
2023-05-19T06:39:52.496Z,98192.66
2023-05-19T06:42:24.617Z,98196.91
2023-05-19T06:44:55.158Z,98194.22
2023-05-19T06:47:25.108Z,98186.94
2023-05-19T06:49:56.911Z,98190.19
2023-05-19T06:52:27.261Z,98189.66
2023-05-19T06:54:57.377Z,98187.22
2023-05-19T06:57:28.085Z,98189.38
2023-05-19T06:59:59.201Z,98188.91
2023-05-19T07:02:29.966Z,98195.72
2023-05-19T07:05:01.435Z,98186.28
2023-05-19T07:07:31.401Z,98193.66
2023-05-19T07:10:01.329Z,98190.00
2023-05-19T07:12:31.348Z,98187.28
2023-05-19T07:15:01.289Z,98197.47
2023-05-19T07:17:32.120Z,98189.56
2023-05-19T07:20:07.139Z,98182.91
2023-05-19T07:22:37.151Z,98182.75
2023-05-19T07:25:07.641Z,98181.75
2023-05-19T07:27:38.809Z,98173.56
2023-05-19T07:30:11.055Z,98177.59
2023-05-19T07:32:41.239Z,98181.06
2023-05-19T07:35:14.171Z,98172.25
2023-05-19T07:37:43.992Z,98165.31
2023-05-19T07:40:16.549Z,98164.75
2023-05-19T07:42:46.984Z,98164.19
2023-05-19T07:45:18.942Z,98164.00
2023-05-19T07:47:49.713Z,98163.22
2023-05-19T07:50:21.871Z,98163.97
2023-05-19T07:52:52.103Z,98156.63
2023-05-19T07:55:23.725Z,98158.59
2023-05-19T07:57:54.178Z,98153.81
2023-05-19T08:00:24.672Z,98152.19
2023-05-19T08:02:54.617Z,98156.31
2023-05-19T08:05:27.629Z,98153.19
2023-05-19T08:07:58.557Z,98152.69
2023-05-19T08:10:29.073Z,98149.78
2023-05-19T08:12:58.774Z,98147.47
2023-05-19T08:15:29.636Z,98151.56
2023-05-19T08:17:59.688Z,98145.28
2023-05-19T08:20:31.768Z,98158.41
2023-05-19T08:23:02.022Z,98152.03
2023-05-19T08:25:32.947Z,98151.81
2023-05-19T08:28:03.832Z,98151.22
2023-05-19T08:30:41.042Z,98158.53
2023-05-19T08:33:22.264Z,98160.31
2023-05-19T08:36:01.992Z,98155.69
2023-05-19T08:38:39.458Z,98156.03
2023-05-19T08:41:17.107Z,98154.41
2023-05-19T08:43:55.519Z,98150.47
2023-05-19T08:46:33.741Z,98152.00
2023-05-19T08:49:18.148Z,98145.94
2023-05-19T08:52:06.841Z,98154.59
2023-05-19T08:54:49.914Z,98154.03
2023-05-19T08:57:37.544Z,98148.81
2023-05-19T09:00:18.163Z,98157.66
2023-05-19T09:03:05.925Z,98147.53
2023-05-19T09:05:54.894Z,98141.06
2023-05-19T09:08:36.135Z,98147.50
2023-05-19T09:11:12.514Z,98145.47
2023-05-19T09:13:49.906Z,98149.38
2023-05-19T09:16:30.097Z,98151.66
2023-05-19T09:19:10.798Z,98146.72
2023-05-19T09:21:47.771Z,98146.25
2023-05-19T09:24:25.995Z,98141.78
2023-05-19T09:27:03.344Z,98146.47
2023-05-19T09:29:39.036Z,98148.06
2023-05-19T09:32:23.726Z,98147.75
2023-05-19T09:35:04.933Z,98145.72
2023-05-19T09:37:39.758Z,98138.69
2023-05-19T09:40:50.891Z,98138.78
2023-05-19T09:43:29.010Z,98138.81
2023-05-19T09:46:03.351Z,98134.22
2023-05-19T09:48:34.862Z,98134.78
2023-05-19T09:51:08.280Z,98132.69
2023-05-19T09:53:40.358Z,98129.00
2023-05-19T09:56:14.593Z,98131.38
2023-05-19T09:58:45.104Z,98129.66
2023-05-19T10:01:15.398Z,98126.59
2023-05-19T10:03:47.928Z,98124.28
2023-05-19T10:06:20.997Z,98123.09
2023-05-19T10:08:52.959Z,98128.84
2023-05-19T10:11:25.837Z,98133.28
2023-05-19T10:13:57.010Z,98133.50
2023-05-19T10:16:30.005Z,98133.34
2023-05-19T10:19:03.003Z,98124.81
2023-05-19T10:21:33.711Z,98128.75
2023-05-19T10:24:06.987Z,98124.94
2023-05-19T10:26:41.316Z,98124.88
2023-05-19T10:29:12.090Z,98116.78
2023-05-19T10:31:43.681Z,98118.69
2023-05-19T10:34:27.382Z,98116.00
2023-05-19T10:37:05.075Z,98110.44
2023-05-19T10:39:39.986Z,98117.56
2023-05-19T10:42:18.502Z,98114.72
2023-05-19T10:44:58.916Z,98110.75
2023-05-19T10:47:29.362Z,98116.88
2023-05-19T10:49:59.652Z,98114.41
2023-05-19T10:52:31.124Z,98117.59
2023-05-19T10:55:05.442Z,98120.44
2023-05-19T10:57:37.608Z,98123.28
2023-05-19T11:00:30.089Z,98119.09
2023-05-19T11:03:15.382Z,98126.75
2023-05-19T11:05:45.840Z,98118.06
2023-05-19T11:08:17.677Z,98116.06
2023-05-19T11:10:49.022Z,98105.59
2023-05-19T11:13:26.163Z,98103.88
2023-05-19T11:16:02.076Z,98094.00
2023-05-19T11:18:34.732Z,98094.28
2023-05-19T11:21:05.868Z,98094.47
2023-05-19T11:23:39.055Z,98094.66
2023-05-19T11:26:11.270Z,98092.94
2023-05-19T11:28:44.332Z,98094.66
2023-05-19T11:31:16.115Z,98093.03
2023-05-19T11:33:46.354Z,98100.63
2023-05-19T11:36:19.022Z,98087.09
2023-05-19T11:38:49.699Z,98091.13
2023-05-19T11:41:21.586Z,98082.66
2023-05-19T11:43:53.199Z,98083.25
2023-05-19T11:46:24.501Z,98087.34
2023-05-19T11:48:57.689Z,98083.06
2023-05-19T11:51:28.147Z,98079.34
2023-05-19T11:53:58.660Z,98075.09
2023-05-19T11:56:28.644Z,98077.66
2023-05-19T11:59:00.515Z,98068.34
2023-05-19T12:01:32.580Z,98070.66
2023-05-19T12:04:03.090Z,98066.94
2023-05-19T12:06:33.407Z,98070.19
2023-05-19T12:09:04.415Z,98066.59
2023-05-19T12:11:34.609Z,98072.44
2023-05-19T12:14:06.952Z,98065.56
2023-05-19T12:16:38.795Z,98068.41
2023-05-19T12:19:10.365Z,98069.56
2023-05-19T12:21:41.532Z,98064.63
2023-05-19T12:24:11.965Z,98067.16
2023-05-19T12:26:43.659Z,98061.97
2023-05-19T12:29:17.324Z,98066.28
2023-05-19T12:31:50.004Z,98060.81
2023-05-19T12:34:19.756Z,98062.56
2023-05-19T12:36:50.017Z,98059.16
2023-05-19T12:39:21.506Z,98057.81
2023-05-19T12:41:52.520Z,98050.03
2023-05-19T12:44:23.772Z,98046.03
2023-05-19T12:46:54.892Z,98048.19
2023-05-19T12:49:24.740Z,98056.63
2023-05-19T12:51:55.340Z,98057.91
2023-05-19T12:54:26.532Z,98054.34
2023-05-19T12:56:56.533Z,98053.44
2023-05-19T12:59:38.276Z,98040.19
